sensor_id;sensor_type;location;lat;lon;timestamp;temperature;humidity
6792;DHT22;3433;48.730;9.108;2024-01-15T00:02:35;-0.20;99.90
6792;DHT22;3433;48.730;9.108;2024-01-15T00:05:23;-0.20;99.90
6792;DHT22;3433;48.730;9.108;2024-01-15T00:08:10;-0.30;99.90
6792;DHT22;3433;48.730;9.108;2024-01-15T00:10:57;-0.40;99.90
6792;DHT22;3433;48.730;9.108;2024-01-15T00:13:44;-0.20;99.90
6792;DHT22;3433;48.730;9.108;2024-01-15T00:16:33;-0.10;99.90
6792;DHT22;3433;48.730;9.108;2024-01-15T00:19:21;-0.10;99.90
6792;DHT22;3433;48.730;9.108;2024-01-15T00:22:09;-0.20;99.90
6792;DHT22;3433;48.730;9.108;2024-01-15T00:24:56;-0.20;99.90
6792;DHT22;3433;48.730;9.108;2024-01-15T00:27:43;0.00;99.90
6792;DHT22;3433;48.730;9.108;2024-01-15T00:30:31;0.10;99.90
6792;DHT22;3433;48.730;9.108;2024-01-15T00:33:19;0.00;99.90
6792;DHT22;3433;48.730;9.108;2024-01-15T00:36:07;0.00;99.90
6792;DHT22;3433;48.730;9.108;2024-01-15T00:38:54;0.00;99.90
6792;DHT22;3433;48.730;9.108;2024-01-15T00:41:41;0.00;99.90
6792;DHT22;3433;48.730;9.108;2024-01-15T00:44:29;0.10;99.90
6792;DHT22;3433;48.730;9.108;2024-01-15T00:47:18;0.10;99.90
6792;DHT22;3433;48.730;9.108;2024-01-15T00:50:07;0.00;99.90
6792;DHT22;3433;48.730;9.108;2024-01-15T00:52:55;0.20;99.90
6792;DHT22;3433;48.730;9.108;2024-01-15T00:55:42;0.10;99.90
6792;DHT22;3433;48.730;9.108;2024-01-15T00:58:29;0.10;99.90
6792;DHT22;3433;48.730;9.108;2024-01-15T01:01:16;0.10;99.90
6792;DHT22;3433;48.730;9.108;2024-01-15T01:04:04;0.10;99.90
6792;DHT22;3433;48.730;9.108;2024-01-15T01:06:52;0.10;99.90
6792;DHT22;3433;48.730;9.108;2024-01-15T01:09:40;0.00;99.90
6792;DHT22;3433;48.730;9.108;2024-01-15T01:12:27;0.00;99.90
6792;DHT22;3433;48.730;9.108;2024-01-15T01:15:15;0.10;99.90
6792;DHT22;3433;48.730;9.108;2024-01-15T01:18:03;0.10;99.90
6792;DHT22;3433;48.730;9.108;2024-01-15T01:20:50;0.20;99.90
6792;DHT22;3433;48.730;9.108;2024-01-15T01:23:39;0.30;99.90
6792;DHT22;3433;48.730;9.108;2024-01-15T01:26:26;0.30;99.90
6792;DHT22;3433;48.730;9.108;2024-01-15T01:29:13;0.20;99.90
6792;DHT22;3433;48.730;9.108;2024-01-15T01:32:00;0.20;99.90
6792;DHT22;3433;48.730;9.108;2024-01-15T01:34:48;0.10;99.90
6792;DHT22;3433;48.730;9.108;2024-01-15T01:37:35;0.10;99.90
6792;DHT22;3433;48.730;9.108;2024-01-15T01:40:24;0.20;99.90
6792;DHT22;3433;48.730;9.108;2024-01-15T01:43:11;0.20;99.90
6792;DHT22;3433;48.730;9.108;2024-01-15T01:45:58;0.30;99.90
6792;DHT22;3433;48.730;9.108;2024-01-15T01:48:47;0.30;99.90
6792;DHT22;3433;48.730;9.108;2024-01-15T01:51:35;0.10;99.90
6792;DHT22;3433;48.730;9.108;2024-01-15T01:54:23;-0.10;99.90
6792;DHT22;3433;48.730;9.108;2024-01-15T01:57:12;-0.10;99.90
6792;DHT22;3433;48.730;9.108;2024-01-15T02:00:00;0.10;99.90
6792;DHT22;3433;48.730;9.108;2024-01-15T02:02:49;0.20;99.90
6792;DHT22;3433;48.730;9.108;2024-01-15T02:05:37;0.10;99.90
6792;DHT22;3433;48.730;9.108;2024-01-15T02:08:25;0.20;99.90
6792;DHT22;3433;48.730;9.108;2024-01-15T02:11:13;0.20;99.90
6792;DHT22;3433;48.730;9.108;2024-01-15T02:14:02;0.30;99.90
6792;DHT22;3433;48.730;9.108;2024-01-15T02:16:49;0.40;99.90
6792;DHT22;3433;48.730;9.108;2024-01-15T02:19:36;-0.10;99.90
6792;DHT22;3433;48.730;9.108;2024-01-15T02:22:25;0.10;99.90
6792;DHT22;3433;48.730;9.108;2024-01-15T02:25:14;0.30;99.90
6792;DHT22;3433;48.730;9.108;2024-01-15T02:28:01;0.40;99.90
6792;DHT22;3433;48.730;9.108;2024-01-15T02:30:48;0.30;99.90
6792;DHT22;3433;48.730;9.108;2024-01-15T02:33:36;0.40;99.90
6792;DHT22;3433;48.730;9.108;2024-01-15T02:36:23;0.30;99.90
6792;DHT22;3433;48.730;9.108;2024-01-15T02:39:10;0.40;99.90
6792;DHT22;3433;48.730;9.108;2024-01-15T02:41:59;0.30;99.90
6792;DHT22;3433;48.730;9.108;2024-01-15T02:44:46;0.50;99.90
6792;DHT22;3433;48.730;9.108;2024-01-15T02:47:34;0.40;99.90
6792;DHT22;3433;48.730;9.108;2024-01-15T02:50:21;0.30;99.90
6792;DHT22;3433;48.730;9.108;2024-01-15T02:53:08;0.40;99.90
6792;DHT22;3433;48.730;9.108;2024-01-15T02:55:56;0.50;99.90
6792;DHT22;3433;48.730;9.108;2024-01-15T02:58:44;0.40;99.90
6792;DHT22;3433;48.730;9.108;2024-01-15T03:01:32;0.40;99.90
6792;DHT22;3433;48.730;9.108;2024-01-15T03:04:19;0.50;99.90
6792;DHT22;3433;48.730;9.108;2024-01-15T03:07:06;0.20;99.90
6792;DHT22;3433;48.730;9.108;2024-01-15T03:09:53;0.30;99.90
6792;DHT22;3433;48.730;9.108;2024-01-15T03:12:40;0.20;99.90
6792;DHT22;3433;48.730;9.108;2024-01-15T03:15:29;0.00;99.90
6792;DHT22;3433;48.730;9.108;2024-01-15T03:18:16;0.00;99.90
6792;DHT22;3433;48.730;9.108;2024-01-15T03:21:05;0.10;99.90
6792;DHT22;3433;48.730;9.108;2024-01-15T03:23:52;0.20;99.90
6792;DHT22;3433;48.730;9.108;2024-01-15T03:26:40;0.00;99.90
6792;DHT22;3433;48.730;9.108;2024-01-15T03:29:27;0.10;99.90
6792;DHT22;3433;48.730;9.108;2024-01-15T03:32:16;0.20;99.90
6792;DHT22;3433;48.730;9.108;2024-01-15T03:35:03;0.10;99.90
6792;DHT22;3433;48.730;9.108;2024-01-15T03:37:50;0.20;99.90
6792;DHT22;3433;48.730;9.108;2024-01-15T03:40:38;0.30;99.90
6792;DHT22;3433;48.730;9.108;2024-01-15T03:43:27;0.30;99.90
6792;DHT22;3433;48.730;9.108;2024-01-15T03:46:14;0.40;99.90
6792;DHT22;3433;48.730;9.108;2024-01-15T03:49:03;0.30;99.90
6792;DHT22;3433;48.730;9.108;2024-01-15T03:51:50;0.40;99.90
6792;DHT22;3433;48.730;9.108;2024-01-15T03:54:37;0.40;99.90
6792;DHT22;3433;48.730;9.108;2024-01-15T03:57:24;0.40;99.90
6792;DHT22;3433;48.730;9.108;2024-01-15T04:00:14;0.40;99.90
6792;DHT22;3433;48.730;9.108;2024-01-15T04:03:03;0.40;99.90
6792;DHT22;3433;48.730;9.108;2024-01-15T04:05:51;0.50;99.90
6792;DHT22;3433;48.730;9.108;2024-01-15T04:08:39;0.40;99.90
6792;DHT22;3433;48.730;9.108;2024-01-15T04:11:26;0.40;99.90
6792;DHT22;3433;48.730;9.108;2024-01-15T04:14:13;0.30;99.90
6792;DHT22;3433;48.730;9.108;2024-01-15T04:17:00;0.50;99.90
6792;DHT22;3433;48.730;9.108;2024-01-15T04:19:47;0.40;99.90
6792;DHT22;3433;48.730;9.108;2024-01-15T04:22:36;0.30;99.90
6792;DHT22;3433;48.730;9.108;2024-01-15T04:25:23;0.50;99.90
6792;DHT22;3433;48.730;9.108;2024-01-15T04:28:11;0.60;99.90
6792;DHT22;3433;48.730;9.108;2024-01-15T04:30:58;0.40;99.90
6792;DHT22;3433;48.730;9.108;2024-01-15T04:33:45;0.40;99.90
6792;DHT22;3433;48.730;9.108;2024-01-15T04:36:34;0.50;99.90
6792;DHT22;3433;48.730;9.108;2024-01-15T04:39:26;0.50;99.90
6792;DHT22;3433;48.730;9.108;2024-01-15T04:42:13;0.50;99.90
6792;DHT22;3433;48.730;9.108;2024-01-15T04:45:00;0.60;99.90
6792;DHT22;3433;48.730;9.108;2024-01-15T04:47:48;0.40;99.90
6792;DHT22;3433;48.730;9.108;2024-01-15T04:50:35;0.20;99.90
6792;DHT22;3433;48.730;9.108;2024-01-15T04:53:22;0.40;99.90
6792;DHT22;3433;48.730;9.108;2024-01-15T04:56:11;0.30;99.90
6792;DHT22;3433;48.730;9.108;2024-01-15T04:58:58;0.30;99.90
6792;DHT22;3433;48.730;9.108;2024-01-15T05:01:45;0.40;99.90
6792;DHT22;3433;48.730;9.108;2024-01-15T05:04:33;0.40;99.90
6792;DHT22;3433;48.730;9.108;2024-01-15T05:07:20;0.30;99.90
6792;DHT22;3433;48.730;9.108;2024-01-15T05:10:07;0.40;99.90
6792;DHT22;3433;48.730;9.108;2024-01-15T05:12:56;0.40;99.90
6792;DHT22;3433;48.730;9.108;2024-01-15T05:15:43;0.60;99.90
6792;DHT22;3433;48.730;9.108;2024-01-15T05:18:30;0.40;99.90
6792;DHT22;3433;48.730;9.108;2024-01-15T05:21:18;0.30;99.90
6792;DHT22;3433;48.730;9.108;2024-01-15T05:24:05;0.30;99.90
6792;DHT22;3433;48.730;9.108;2024-01-15T05:26:52;0.50;99.90
6792;DHT22;3433;48.730;9.108;2024-01-15T05:29:41;0.50;99.90
6792;DHT22;3433;48.730;9.108;2024-01-15T05:32:28;0.60;99.90
6792;DHT22;3433;48.730;9.108;2024-01-15T05:35:16;0.50;99.90
6792;DHT22;3433;48.730;9.108;2024-01-15T05:38:03;0.40;99.90
6792;DHT22;3433;48.730;9.108;2024-01-15T05:40:50;0.30;99.90
6792;DHT22;3433;48.730;9.108;2024-01-15T05:43:38;0.20;99.90
6792;DHT22;3433;48.730;9.108;2024-01-15T05:46:26;0.20;99.90
6792;DHT22;3433;48.730;9.108;2024-01-15T05:49:13;0.30;99.90
6792;DHT22;3433;48.730;9.108;2024-01-15T05:52:01;0.20;99.90
6792;DHT22;3433;48.730;9.108;2024-01-15T05:54:48;0.20;99.90
6792;DHT22;3433;48.730;9.108;2024-01-15T05:57:36;0.40;99.90
6792;DHT22;3433;48.730;9.108;2024-01-15T06:00:23;0.30;99.90
6792;DHT22;3433;48.730;9.108;2024-01-15T06:03:12;0.20;99.90
6792;DHT22;3433;48.730;9.108;2024-01-15T06:05:59;0.10;99.90
6792;DHT22;3433;48.730;9.108;2024-01-15T06:08:47;0.10;99.90
6792;DHT22;3433;48.730;9.108;2024-01-15T06:11:35;0.20;99.90
6792;DHT22;3433;48.730;9.108;2024-01-15T06:14:22;0.20;99.90
6792;DHT22;3433;48.730;9.108;2024-01-15T06:17:09;0.20;99.90
6792;DHT22;3433;48.730;9.108;2024-01-15T06:19:58;0.00;99.90
6792;DHT22;3433;48.730;9.108;2024-01-15T06:22:45;0.10;99.90
6792;DHT22;3433;48.730;9.108;2024-01-15T06:25:32;0.10;99.90
6792;DHT22;3433;48.730;9.108;2024-01-15T06:28:20;0.40;99.90
6792;DHT22;3433;48.730;9.108;2024-01-15T06:31:07;0.30;99.90
6792;DHT22;3433;48.730;9.108;2024-01-15T06:33:54;0.00;99.90
6792;DHT22;3433;48.730;9.108;2024-01-15T06:36:43;0.10;99.90
6792;DHT22;3433;48.730;9.108;2024-01-15T06:39:30;-0.10;99.90
6792;DHT22;3433;48.730;9.108;2024-01-15T06:42:18;0.00;99.90
6792;DHT22;3433;48.730;9.108;2024-01-15T06:45:08;0.20;99.90
6792;DHT22;3433;48.730;9.108;2024-01-15T06:47:55;0.10;99.90
6792;DHT22;3433;48.730;9.108;2024-01-15T06:50:43;0.00;99.90
6792;DHT22;3433;48.730;9.108;2024-01-15T06:53:31;-0.10;99.90
6792;DHT22;3433;48.730;9.108;2024-01-15T06:56:19;0.10;99.90
6792;DHT22;3433;48.730;9.108;2024-01-15T06:59:06;0.00;99.90
6792;DHT22;3433;48.730;9.108;2024-01-15T07:01:54;0.10;99.90
6792;DHT22;3433;48.730;9.108;2024-01-15T07:04:41;0.00;99.90
6792;DHT22;3433;48.730;9.108;2024-01-15T07:07:28;0.10;99.90
6792;DHT22;3433;48.730;9.108;2024-01-15T07:10:17;0.00;99.90
6792;DHT22;3433;48.730;9.108;2024-01-15T07:13:04;0.10;99.90
6792;DHT22;3433;48.730;9.108;2024-01-15T07:15:51;0.00;99.90
6792;DHT22;3433;48.730;9.108;2024-01-15T07:18:39;0.00;99.90
6792;DHT22;3433;48.730;9.108;2024-01-15T07:21:26;0.20;99.90
6792;DHT22;3433;48.730;9.108;2024-01-15T07:24:13;0.10;99.90
6792;DHT22;3433;48.730;9.108;2024-01-15T07:27:02;0.10;99.90
6792;DHT22;3433;48.730;9.108;2024-01-15T07:29:50;0.40;99.90
6792;DHT22;3433;48.730;9.108;2024-01-15T07:32:38;0.50;99.90
6792;DHT22;3433;48.730;9.108;2024-01-15T07:35:25;0.30;99.90
6792;DHT22;3433;48.730;9.108;2024-01-15T07:38:12;0.30;99.90
6792;DHT22;3433;48.730;9.108;2024-01-15T07:40:59;0.40;99.90
6792;DHT22;3433;48.730;9.108;2024-01-15T07:43:48;0.20;99.90
6792;DHT22;3433;48.730;9.108;2024-01-15T07:46:35;0.20;99.90
6792;DHT22;3433;48.730;9.108;2024-01-15T07:49:23;0.20;99.90
6792;DHT22;3433;48.730;9.108;2024-01-15T07:52:10;0.10;99.90
6792;DHT22;3433;48.730;9.108;2024-01-15T07:54:59;0.20;99.90
6792;DHT22;3433;48.730;9.108;2024-01-15T07:57:46;0.20;99.90
6792;DHT22;3433;48.730;9.108;2024-01-15T08:00:35;0.20;99.90
6792;DHT22;3433;48.730;9.108;2024-01-15T08:03:22;0.20;99.90
6792;DHT22;3433;48.730;9.108;2024-01-15T08:06:10;0.30;99.90
6792;DHT22;3433;48.730;9.108;2024-01-15T08:08:57;0.20;99.90
6792;DHT22;3433;48.730;9.108;2024-01-15T08:11:45;0.20;99.90
6792;DHT22;3433;48.730;9.108;2024-01-15T08:14:32;0.20;99.90
6792;DHT22;3433;48.730;9.108;2024-01-15T08:17:21;0.50;99.90
6792;DHT22;3433;48.730;9.108;2024-01-15T08:20:08;0.50;99.90
6792;DHT22;3433;48.730;9.108;2024-01-15T08:22:56;0.60;99.90
6792;DHT22;3433;48.730;9.108;2024-01-15T08:25:43;0.60;99.90
6792;DHT22;3433;48.730;9.108;2024-01-15T08:28:30;0.50;99.90
6792;DHT22;3433;48.730;9.108;2024-01-15T08:31:18;0.50;99.90
6792;DHT22;3433;48.730;9.108;2024-01-15T08:34:07;0.60;99.90
6792;DHT22;3433;48.730;9.108;2024-01-15T08:36:54;0.80;99.90
6792;DHT22;3433;48.730;9.108;2024-01-15T08:39:41;0.70;99.90
6792;DHT22;3433;48.730;9.108;2024-01-15T08:42:28;0.80;99.90
6792;DHT22;3433;48.730;9.108;2024-01-15T08:45:16;1.00;99.90
6792;DHT22;3433;48.730;9.108;2024-01-15T08:48:03;1.00;99.90
6792;DHT22;3433;48.730;9.108;2024-01-15T08:50:52;0.90;99.90
6792;DHT22;3433;48.730;9.108;2024-01-15T08:53:39;0.90;99.90
6792;DHT22;3433;48.730;9.108;2024-01-15T08:56:27;0.90;99.90
6792;DHT22;3433;48.730;9.108;2024-01-15T08:59:14;0.90;99.90
6792;DHT22;3433;48.730;9.108;2024-01-15T09:02:02;0.90;99.90
6792;DHT22;3433;48.730;9.108;2024-01-15T09:04:49;1.00;99.90
6792;DHT22;3433;48.730;9.108;2024-01-15T09:07:38;1.00;99.90
6792;DHT22;3433;48.730;9.108;2024-01-15T09:10:25;0.90;99.90
6792;DHT22;3433;48.730;9.108;2024-01-15T09:13:12;0.90;99.90
6792;DHT22;3433;48.730;9.108;2024-01-15T09:15:59;1.00;99.90
6792;DHT22;3433;48.730;9.108;2024-01-15T09:18:47;1.10;99.90
6792;DHT22;3433;48.730;9.108;2024-01-15T09:21:35;1.20;99.90
6792;DHT22;3433;48.730;9.108;2024-01-15T09:24:23;1.20;99.90
6792;DHT22;3433;48.730;9.108;2024-01-15T09:27:10;1.10;99.90
6792;DHT22;3433;48.730;9.108;2024-01-15T09:29:58;1.30;99.90
6792;DHT22;3433;48.730;9.108;2024-01-15T09:32:45;1.20;99.90
6792;DHT22;3433;48.730;9.108;2024-01-15T09:35:32;1.20;99.90
6792;DHT22;3433;48.730;9.108;2024-01-15T09:38:20;1.20;99.90
6792;DHT22;3433;48.730;9.108;2024-01-15T09:41:09;1.20;99.90
6792;DHT22;3433;48.730;9.108;2024-01-15T09:43:56;1.10;99.90
6792;DHT22;3433;48.730;9.108;2024-01-15T09:46:43;1.10;99.90
6792;DHT22;3433;48.730;9.108;2024-01-15T09:49:31;0.90;99.90
6792;DHT22;3433;48.730;9.108;2024-01-15T09:52:19;1.10;99.90
6792;DHT22;3433;48.730;9.108;2024-01-15T09:55:08;1.30;99.90
6792;DHT22;3433;48.730;9.108;2024-01-15T09:58:00;1.50;99.90
6792;DHT22;3433;48.730;9.108;2024-01-15T10:00:48;1.60;99.90
6792;DHT22;3433;48.730;9.108;2024-01-15T10:03:37;1.50;99.90
6792;DHT22;3433;48.730;9.108;2024-01-15T10:06:27;1.60;99.90
6792;DHT22;3433;48.730;9.108;2024-01-15T10:09:14;1.40;99.90
6792;DHT22;3433;48.730;9.108;2024-01-15T10:12:02;1.30;99.90
6792;DHT22;3433;48.730;9.108;2024-01-15T10:14:52;1.30;99.90
6792;DHT22;3433;48.730;9.108;2024-01-15T10:17:39;1.30;99.90
6792;DHT22;3433;48.730;9.108;2024-01-15T10:20:26;1.40;99.90
6792;DHT22;3433;48.730;9.108;2024-01-15T10:23:14;1.50;99.90
6792;DHT22;3433;48.730;9.108;2024-01-15T10:26:03;1.60;99.90
6792;DHT22;3433;48.730;9.108;2024-01-15T10:28:51;1.60;99.90
6792;DHT22;3433;48.730;9.108;2024-01-15T10:31:40;1.60;99.90
6792;DHT22;3433;48.730;9.108;2024-01-15T10:34:27;1.60;99.90
6792;DHT22;3433;48.730;9.108;2024-01-15T10:37:14;1.60;99.90
6792;DHT22;3433;48.730;9.108;2024-01-15T10:40:02;1.50;99.90
6792;DHT22;3433;48.730;9.108;2024-01-15T10:42:51;1.70;99.90
6792;DHT22;3433;48.730;9.108;2024-01-15T10:45:39;1.90;99.90
6792;DHT22;3433;48.730;9.108;2024-01-15T10:48:28;1.70;99.90
6792;DHT22;3433;48.730;9.108;2024-01-15T10:51:16;1.70;99.90
6792;DHT22;3433;48.730;9.108;2024-01-15T10:54:04;1.60;99.90
6792;DHT22;3433;48.730;9.108;2024-01-15T10:56:53;1.70;99.90
6792;DHT22;3433;48.730;9.108;2024-01-15T10:59:40;1.70;99.90
6792;DHT22;3433;48.730;9.108;2024-01-15T11:02:28;1.70;99.90
6792;DHT22;3433;48.730;9.108;2024-01-15T11:05:19;1.60;99.90
6792;DHT22;3433;48.730;9.108;2024-01-15T11:08:08;1.70;99.90
6792;DHT22;3433;48.730;9.108;2024-01-15T11:10:55;1.60;99.90
6792;DHT22;3433;48.730;9.108;2024-01-15T11:13:43;1.60;99.90
6792;DHT22;3433;48.730;9.108;2024-01-15T11:16:59;1.70;99.90
6792;DHT22;3433;48.730;9.108;2024-01-15T11:19:47;1.70;99.90
6792;DHT22;3433;48.730;9.108;2024-01-15T11:22:50;1.80;99.90
6792;DHT22;3433;48.730;9.108;2024-01-15T11:25:38;1.80;99.90
6792;DHT22;3433;48.730;9.108;2024-01-15T11:28:49;2.00;99.90
6792;DHT22;3433;48.730;9.108;2024-01-15T11:31:58;1.90;99.90
6792;DHT22;3433;48.730;9.108;2024-01-15T11:34:57;1.90;99.90
6792;DHT22;3433;48.730;9.108;2024-01-15T11:37:58;1.80;99.90
6792;DHT22;3433;48.730;9.108;2024-01-15T11:40:47;1.70;99.90
6792;DHT22;3433;48.730;9.108;2024-01-15T11:43:34;1.80;99.90
6792;DHT22;3433;48.730;9.108;2024-01-15T11:46:21;1.50;99.90
6792;DHT22;3433;48.730;9.108;2024-01-15T11:49:12;1.70;99.90
6792;DHT22;3433;48.730;9.108;2024-01-15T11:52:11;1.70;99.90
6792;DHT22;3433;48.730;9.108;2024-01-15T11:55:07;1.70;99.90
6792;DHT22;3433;48.730;9.108;2024-01-15T11:57:57;1.60;99.90
6792;DHT22;3433;48.730;9.108;2024-01-15T12:00:48;1.60;99.90
6792;DHT22;3433;48.730;9.108;2024-01-15T12:03:37;1.50;99.90
6792;DHT22;3433;48.730;9.108;2024-01-15T12:06:24;1.60;99.90
6792;DHT22;3433;48.730;9.108;2024-01-15T12:09:11;1.50;99.90
6792;DHT22;3433;48.730;9.108;2024-01-15T12:12:06;1.40;99.90
6792;DHT22;3433;48.730;9.108;2024-01-15T12:14:54;1.30;99.90
6792;DHT22;3433;48.730;9.108;2024-01-15T12:17:41;1.30;99.90
6792;DHT22;3433;48.730;9.108;2024-01-15T12:20:29;1.40;99.90
6792;DHT22;3433;48.730;9.108;2024-01-15T12:23:17;1.30;99.90
6792;DHT22;3433;48.730;9.108;2024-01-15T12:26:04;1.30;99.90
6792;DHT22;3433;48.730;9.108;2024-01-15T12:28:54;1.50;99.90
6792;DHT22;3433;48.730;9.108;2024-01-15T12:31:42;1.50;99.90
6792;DHT22;3433;48.730;9.108;2024-01-15T12:34:29;1.50;99.90
6792;DHT22;3433;48.730;9.108;2024-01-15T12:37:18;1.30;99.90
6792;DHT22;3433;48.730;9.108;2024-01-15T12:40:07;1.40;99.90
6792;DHT22;3433;48.730;9.108;2024-01-15T12:42:55;1.60;99.90
6792;DHT22;3433;48.730;9.108;2024-01-15T12:45:44;1.70;99.90
6792;DHT22;3433;48.730;9.108;2024-01-15T12:48:32;1.60;99.90
6792;DHT22;3433;48.730;9.108;2024-01-15T12:51:24;1.60;99.90
6792;DHT22;3433;48.730;9.108;2024-01-15T12:54:11;1.70;99.90
6792;DHT22;3433;48.730;9.108;2024-01-15T12:56:58;1.60;99.90
6792;DHT22;3433;48.730;9.108;2024-01-15T12:59:46;1.70;99.90
6792;DHT22;3433;48.730;9.108;2024-01-15T13:02:35;1.80;99.90
6792;DHT22;3433;48.730;9.108;2024-01-15T13:05:22;1.70;99.90
6792;DHT22;3433;48.730;9.108;2024-01-15T13:08:09;1.40;99.90
6792;DHT22;3433;48.730;9.108;2024-01-15T13:10:56;1.40;99.90
6792;DHT22;3433;48.730;9.108;2024-01-15T13:13:44;1.40;99.90
6792;DHT22;3433;48.730;9.108;2024-01-15T13:16:31;1.70;99.90
6792;DHT22;3433;48.730;9.108;2024-01-15T13:19:20;1.90;99.90
6792;DHT22;3433;48.730;9.108;2024-01-15T13:22:08;2.10;99.90
6792;DHT22;3433;48.730;9.108;2024-01-15T13:24:55;2.00;99.90
6792;DHT22;3433;48.730;9.108;2024-01-15T13:27:42;2.10;99.90
6792;DHT22;3433;48.730;9.108;2024-01-15T13:30:29;2.00;99.90
6792;DHT22;3433;48.730;9.108;2024-01-15T13:33:17;2.10;99.90
6792;DHT22;3433;48.730;9.108;2024-01-15T13:36:06;2.10;99.90
6792;DHT22;3433;48.730;9.108;2024-01-15T13:38:56;2.20;99.90
6792;DHT22;3433;48.730;9.108;2024-01-15T13:41:44;2.20;99.90
6792;DHT22;3433;48.730;9.108;2024-01-15T13:44:31;2.20;99.90
6792;DHT22;3433;48.730;9.108;2024-01-15T13:47:19;2.20;99.90
6792;DHT22;3433;48.730;9.108;2024-01-15T13:50:07;2.30;99.90
6792;DHT22;3433;48.730;9.108;2024-01-15T13:52:56;2.30;99.90
6792;DHT22;3433;48.730;9.108;2024-01-15T13:55:43;2.30;99.90
6792;DHT22;3433;48.730;9.108;2024-01-15T13:58:30;2.30;99.90
6792;DHT22;3433;48.730;9.108;2024-01-15T14:01:18;2.40;99.90
6792;DHT22;3433;48.730;9.108;2024-01-15T14:04:05;2.50;99.90
6792;DHT22;3433;48.730;9.108;2024-01-15T14:06:52;2.50;99.90
6792;DHT22;3433;48.730;9.108;2024-01-15T14:09:41;2.40;99.90
6792;DHT22;3433;48.730;9.108;2024-01-15T14:12:29;2.50;99.90
6792;DHT22;3433;48.730;9.108;2024-01-15T14:15:16;2.50;99.90
6792;DHT22;3433;48.730;9.108;2024-01-15T14:18:05;2.50;99.90
6792;DHT22;3433;48.730;9.108;2024-01-15T14:20:54;2.50;99.90
6792;DHT22;3433;48.730;9.108;2024-01-15T14:23:41;2.60;99.90
6792;DHT22;3433;48.730;9.108;2024-01-15T14:26:30;2.70;99.90
6792;DHT22;3433;48.730;9.108;2024-01-15T14:29:17;2.60;99.90
6792;DHT22;3433;48.730;9.108;2024-01-15T14:32:08;2.70;99.90
6792;DHT22;3433;48.730;9.108;2024-01-15T14:34:55;2.70;99.90
6792;DHT22;3433;48.730;9.108;2024-01-15T14:37:43;2.70;99.90
6792;DHT22;3433;48.730;9.108;2024-01-15T14:40:31;2.40;99.90
6792;DHT22;3433;48.730;9.108;2024-01-15T14:43:20;2.30;99.90
6792;DHT22;3433;48.730;9.108;2024-01-15T14:46:07;2.20;99.90
6792;DHT22;3433;48.730;9.108;2024-01-15T14:48:54;2.30;99.90
6792;DHT22;3433;48.730;9.108;2024-01-15T14:51:41;2.10;99.90
6792;DHT22;3433;48.730;9.108;2024-01-15T14:54:30;2.20;99.90
6792;DHT22;3433;48.730;9.108;2024-01-15T14:57:17;2.10;99.90
6792;DHT22;3433;48.730;9.108;2024-01-15T15:00:07;1.90;99.90
6792;DHT22;3433;48.730;9.108;2024-01-15T15:02:55;2.00;99.90
6792;DHT22;3433;48.730;9.108;2024-01-15T15:05:42;2.20;99.90
6792;DHT22;3433;48.730;9.108;2024-01-15T15:08:30;2.20;99.90
6792;DHT22;3433;48.730;9.108;2024-01-15T15:11:18;2.20;99.90
6792;DHT22;3433;48.730;9.108;2024-01-15T15:14:05;2.30;99.90
6792;DHT22;3433;48.730;9.108;2024-01-15T15:16:54;2.20;99.90
6792;DHT22;3433;48.730;9.108;2024-01-15T15:19:41;2.30;99.90
6792;DHT22;3433;48.730;9.108;2024-01-15T15:22:28;2.30;99.90
6792;DHT22;3433;48.730;9.108;2024-01-15T15:25:16;2.40;99.90
6792;DHT22;3433;48.730;9.108;2024-01-15T15:28:03;2.40;99.90
6792;DHT22;3433;48.730;9.108;2024-01-15T15:30:51;2.30;99.90
6792;DHT22;3433;48.730;9.108;2024-01-15T15:33:40;2.40;99.90
6792;DHT22;3433;48.730;9.108;2024-01-15T15:36:28;2.40;99.90
6792;DHT22;3433;48.730;9.108;2024-01-15T15:39:15;2.40;99.90
6792;DHT22;3433;48.730;9.108;2024-01-15T15:42:03;2.60;99.90
6792;DHT22;3433;48.730;9.108;2024-01-15T15:44:51;2.80;99.90
6792;DHT22;3433;48.730;9.108;2024-01-15T15:47:39;3.00;99.90
6792;DHT22;3433;48.730;9.108;2024-01-15T15:50:27;3.50;99.90
6792;DHT22;3433;48.730;9.108;2024-01-15T15:53:15;3.80;99.90
6792;DHT22;3433;48.730;9.108;2024-01-15T15:56:02;3.90;99.90
6792;DHT22;3433;48.730;9.108;2024-01-15T15:58:50;3.70;99.90
6792;DHT22;3433;48.730;9.108;2024-01-15T16:01:37;3.50;99.90
6792;DHT22;3433;48.730;9.108;2024-01-15T16:04:25;3.20;99.90
6792;DHT22;3433;48.730;9.108;2024-01-15T16:07:14;3.10;99.90
6792;DHT22;3433;48.730;9.108;2024-01-15T16:10:01;2.80;99.90
6792;DHT22;3433;48.730;9.108;2024-01-15T16:12:48;2.60;99.90
6792;DHT22;3433;48.730;9.108;2024-01-15T16:15:36;2.20;99.90
6792;DHT22;3433;48.730;9.108;2024-01-15T16:18:23;2.30;99.90
6792;DHT22;3433;48.730;9.108;2024-01-15T16:21:10;2.20;99.90
6792;DHT22;3433;48.730;9.108;2024-01-15T16:24:00;2.20;99.90
6792;DHT22;3433;48.730;9.108;2024-01-15T16:26:47;2.10;99.90
6792;DHT22;3433;48.730;9.108;2024-01-15T16:29:34;2.20;99.90
6792;DHT22;3433;48.730;9.108;2024-01-15T16:32:21;2.00;99.90
6792;DHT22;3433;48.730;9.108;2024-01-15T16:35:09;2.00;99.90
6792;DHT22;3433;48.730;9.108;2024-01-15T16:37:56;2.00;99.90
6792;DHT22;3433;48.730;9.108;2024-01-15T16:40:45;1.90;99.90
6792;DHT22;3433;48.730;9.108;2024-01-15T16:43:32;1.90;99.90
6792;DHT22;3433;48.730;9.108;2024-01-15T16:46:19;1.90;99.90
6792;DHT22;3433;48.730;9.108;2024-01-15T16:49:06;1.70;99.90
6792;DHT22;3433;48.730;9.108;2024-01-15T16:51:56;1.60;99.90
6792;DHT22;3433;48.730;9.108;2024-01-15T16:54:43;1.70;99.90
6792;DHT22;3433;48.730;9.108;2024-01-15T16:57:32;1.80;99.90
6792;DHT22;3433;48.730;9.108;2024-01-15T17:00:19;1.70;99.90
6792;DHT22;3433;48.730;9.108;2024-01-15T17:03:06;1.60;99.90
6792;DHT22;3433;48.730;9.108;2024-01-15T17:05:53;1.60;99.90
6792;DHT22;3433;48.730;9.108;2024-01-15T17:08:41;1.60;99.90
6792;DHT22;3433;48.730;9.108;2024-01-15T17:11:28;1.60;99.90
6792;DHT22;3433;48.730;9.108;2024-01-15T17:14:17;1.60;99.90
6792;DHT22;3433;48.730;9.108;2024-01-15T17:17:04;1.50;99.90
6792;DHT22;3433;48.730;9.108;2024-01-15T17:19:51;1.50;99.90
6792;DHT22;3433;48.730;9.108;2024-01-15T17:22:39;1.40;99.90
6792;DHT22;3433;48.730;9.108;2024-01-15T17:25:26;1.40;99.90
6792;DHT22;3433;48.730;9.108;2024-01-15T17:28:14;1.10;99.90
6792;DHT22;3433;48.730;9.108;2024-01-15T17:31:02;1.10;99.90
6792;DHT22;3433;48.730;9.108;2024-01-15T17:33:49;1.10;99.90
6792;DHT22;3433;48.730;9.108;2024-01-15T17:36:37;1.30;99.90
6792;DHT22;3433;48.730;9.108;2024-01-15T17:39:24;1.30;99.90
6792;DHT22;3433;48.730;9.108;2024-01-15T17:42:12;1.20;99.90
6792;DHT22;3433;48.730;9.108;2024-01-15T17:44:59;1.20;99.90
6792;DHT22;3433;48.730;9.108;2024-01-15T17:47:48;1.20;99.90
6792;DHT22;3433;48.730;9.108;2024-01-15T17:50:36;1.20;99.90
6792;DHT22;3433;48.730;9.108;2024-01-15T17:53:24;1.30;99.90
6792;DHT22;3433;48.730;9.108;2024-01-15T17:56:11;1.30;99.90
6792;DHT22;3433;48.730;9.108;2024-01-15T17:58:58;1.20;99.90
6792;DHT22;3433;48.730;9.108;2024-01-15T18:01:46;1.20;99.90
6792;DHT22;3433;48.730;9.108;2024-01-15T18:04:35;1.10;99.90
6792;DHT22;3433;48.730;9.108;2024-01-15T18:07:22;1.10;99.90
6792;DHT22;3433;48.730;9.108;2024-01-15T18:10:10;1.10;99.90
6792;DHT22;3433;48.730;9.108;2024-01-15T18:12:57;1.20;99.90
6792;DHT22;3433;48.730;9.108;2024-01-15T18:15:47;1.10;99.90
6792;DHT22;3433;48.730;9.108;2024-01-15T18:18:35;1.10;99.90
6792;DHT22;3433;48.730;9.108;2024-01-15T18:21:25;1.10;99.90
6792;DHT22;3433;48.730;9.108;2024-01-15T18:24:12;1.10;99.90
6792;DHT22;3433;48.730;9.108;2024-01-15T18:26:59;1.00;99.90
6792;DHT22;3433;48.730;9.108;2024-01-15T18:29:49;1.10;99.90
6792;DHT22;3433;48.730;9.108;2024-01-15T18:32:36;1.10;99.90
6792;DHT22;3433;48.730;9.108;2024-01-15T18:35:23;1.50;99.90